TimeEST,TemperatureF,Dew PointF,Humidity,Sea Level PressureIn,VisibilityMPH,Wind Direction,Wind SpeedMPH,Gust SpeedMPH,PrecipitationIn,Events,Conditions,WindDirDegrees,DateUTC
12:53 AM,66.0,66.0,100,30.17,8.0,NE,4.6,-,N/A,,Clear,40,2013-01-06 05:53:00
1:53 AM,66.0,66.0,100,30.15,7.0,ENE,5.8,-,N/A,,Clear,70,2013-01-06 06:53:00
2:53 AM,66.0,66.0,100,30.14,6.0,East,5.8,-,N/A,,Clear,80,2013-01-06 07:53:00
3:53 AM,64.9,64.9,100,30.13,4.0,NE,4.6,-,N/A,,Scattered Clouds,50,2013-01-06 08:53:00
4:17 AM,64.4,64.4,100,30.13,2.0,NE,5.8,-,N/A,,Overcast,40,2013-01-06 09:17:00
4:26 AM,64.4,64.4,100,30.13,1.5,NE,5.8,-,N/A,,Overcast,40,2013-01-06 09:26:00
4:53 AM,64.9,64.9,100,30.12,1.8,ENE,5.8,-,N/A,,Overcast,60,2013-01-06 09:53:00
5:12 AM,64.4,64.4,100,30.12,0.8,ENE,5.8,-,N/A,,Mist,60,2013-01-06 10:12:00
5:19 AM,64.4,64.4,100,30.12,0.5,NE,6.9,-,N/A,Fog,Fog,50,2013-01-06 10:19:00
5:53 AM,64.9,64.9,100,30.12,0.5,NE,5.8,-,N/A,Fog,Fog,40,2013-01-06 10:53:00
6:13 AM,64.4,64.4,100,30.13,0.8,NE,8.1,-,N/A,,Mist,50,2013-01-06 11:13:00
6:20 AM,64.4,64.4,100,30.13,0.5,NE,6.9,-,N/A,Fog,Fog,50,2013-01-06 11:20:00
6:53 AM,64.0,64.0,100,30.13,0.5,ENE,4.6,-,N/A,Fog,Fog,60,2013-01-06 11:53:00
7:15 AM,64.4,64.4,100,30.14,0.2,ENE,6.9,-,N/A,Fog,Fog,70,2013-01-06 12:15:00
7:53 AM,64.9,64.9,100,30.14,0.5,East,5.8,-,N/A,Fog,Fog,80,2013-01-06 12:53:00
8:00 AM,64.4,64.4,100,30.15,0.2,ENE,5.8,-,N/A,Fog,Fog,70,2013-01-06 13:00:00
8:23 AM,66.2,66.2,100,30.15,0.5,ENE,5.8,-,N/A,Fog,Fog,70,2013-01-06 13:23:00
8:35 AM,66.2,66.2,100,30.15,1.0,ENE,6.9,-,N/A,,Overcast,70,2013-01-06 13:35:00
8:53 AM,66.0,66.0,100,30.16,2.5,ENE,5.8,-,N/A,,Overcast,70,2013-01-06 13:53:00
9:23 AM,68.0,68.0,100,30.16,8.0,East,5.8,-,N/A,,Scattered Clouds,80,2013-01-06 14:23:00
9:53 AM,71.1,68.0,90,30.16,10.0,ENE,4.6,-,N/A,,Clear,60,2013-01-06 14:53:00
11:01 AM,77.0,71.6,83,30.14,10.0,ESE,6.9,-,N/A,,Mostly Cloudy,120,2013-01-06 16:01:00
11:53 AM,79.0,70.0,74,30.13,10.0,SSE,10.4,-,N/A,,Mostly Cloudy,150,2013-01-06 16:53:00
12:53 PM,82.0,69.1,65,30.09,10.0,South,10.4,-,N/A,,Mostly Cloudy,180,2013-01-06 17:53:00
1:27 PM,80.6,68.0,65,30.08,10.0,South,9.2,-,N/A,,Mostly Cloudy,170,2013-01-06 18:27:00
1:53 PM,82.9,69.1,63,30.06,10.0,South,16.1,20.7,N/A,,Mostly Cloudy,190,2013-01-06 18:53:00
2:53 PM,81.0,70.0,69,30.06,10.0,SSW,10.4,-,N/A,,Mostly Cloudy,200,2013-01-06 19:53:00
3:53 PM,79.0,69.1,72,30.06,10.0,SSW,10.4,-,N/A,,Overcast,200,2013-01-06 20:53:00
4:53 PM,78.1,69.1,74,30.06,10.0,South,9.2,-,N/A,,Overcast,190,2013-01-06 21:53:00
5:53 PM,75.9,70.0,82,30.08,10.0,South,6.9,-,N/A,,Overcast,190,2013-01-06 22:53:00
6:53 PM,73.9,70.0,87,30.09,10.0,Calm,Calm,-,N/A,,Clear,0,2013-01-06 23:53:00
7:53 PM,73.0,70.0,90,30.10,10.0,Calm,Calm,-,N/A,,Scattered Clouds,0,2013-01-07 00:53:00
8:53 PM,72.0,71.1,97,30.11,10.0,Calm,Calm,-,N/A,,Clear,0,2013-01-07 01:53:00
9:53 PM,71.1,69.1,93,30.12,10.0,Calm,Calm,-,N/A,,Clear,0,2013-01-07 02:53:00
10:53 PM,71.1,70.0,96,30.11,9.0,Calm,Calm,-,N/A,,Partly Cloudy,0,2013-01-07 03:53:00
11:23 PM,71.6,69.8,94,30.12,9.0,NNW,3.5,-,N/A,,Mostly Cloudy,330,2013-01-07 04:23:00
11:53 PM,71.1,70.0,96,30.12,9.0,Calm,Calm,-,N/A,,Mostly Cloudy,0,2013-01-07 04:53:00